CEFAS Endeavour — VQHF3 — position and weather

sailwx.info

Track history (hours):
 
Tides and Currents Weather Stations Pressure Air Temp Water Temp Dewpoint Dewpoint Depression Visibility Wind Speed Wind Dir Waves Ship Positions

Oceanographic research ship CEFAS Endeavour (UK)

Detailed information on ship capabilities available from University of Delaware's Ocean Information Center.

Last reported at 2015-Mar-27 16:30 UTC. Time now 2015-Mar-28 09:27 UTC.
Position N 50°43' W 005°31'.

Length 74 m; draft 6.4 m.

Type: Cargo ship. MMSI: 235005270.

Date/timePositionNaut miles runAvg speedWind from/ knotsBaromVisibWave heightAir tempDewpointWater temp
2015-Mar-27 16:30N 50°43' W 005°31'  
2015-Mar-22 18:17N 52°08' W 006°24'1111.2
2015-Mar-22 17:19N 52°03' W 006°39'811.2
2015-Mar-22 16:34N 52°01' W 006°52'7 6.6
2015-Mar-22 15:34N 52°05' W 007°01'9 9.5
2015-Mar-22 14:33N 52°07' W 007°16'2 2.1
2015-Mar-22 13:33N 52°05' W 007°16'4 3.5
2015-Mar-22 12:34N 52°03' W 007°21'1110.9
2015-Mar-22 11:33N 51°55' W 007°32'1 1.2
2015-Mar-22 10:34N 51°54' W 007°34'6 5.5
2015-Mar-22 09:34N 51°54' W 007°43'4 4.0
2015-Mar-22 08:33N 51°52' W 007°48'4 3.6
2015-Mar-22 07:33N 51°50' W 007°44'1110.6
2015-Mar-22 06:33N 51°41' W 007°34'2411.8
2015-Mar-22 04:30N 51°22' W 007°11'1111.9
2015-Mar-22 03:33N 51°12' W 007°01'74 4.6
2015-Mar-21 11:33N 50°36' W 005°19'1010.5
2015-Mar-21 10:33N 50°26' W 005°23'7 2.4
2015-Mar-21 07:27N 50°23' W 005°34'84 3.3
2015-Mar-20 06:11N 50°50' W 007°39'5 7.6
2015-Mar-20 05:31N 50°54' W 007°44'1212.4
2015-Mar-20 04:34N 51°00' W 008°00'10 7.4
2015-Mar-20 03:15N 51°04' W 008°15'7 9.4
2015-Mar-20 02:33N 51°02' W 008°25'1212.3
2015-Mar-20 01:32N 50°59' W 008°44'28 6.3
2015-Mar-19 21:05N 51°26' W 008°32'612.0
2015-Mar-19 20:34N 51°32' W 008°30'7 6.5
2015-Mar-19 19:33N 51°39' W 008°29'2 2.1
2015-Mar-19 18:34N 51°40' W 008°26'1 0.7
2015-Mar-19 17:33N 51°39' W 008°25'9 8.8
2015-Mar-19 16:34N 51°33' W 008°35'9 9.1
2015-Mar-19 15:34N 51°27' W 008°46'7 6.5
2015-Mar-19 14:34N 51°23' W 008°53'6 5.5
2015-Mar-19 13:34N 51°18' W 008°57'1212.1
2015-Mar-19 12:34N 51°06' W 009°01'  
Track history (hours):
 
Tides and Currents Weather Stations Pressure Air Temp Water Temp Dewpoint Dewpoint Depression Visibility Wind Speed Wind Dir Waves Ship Positions

Oceanographic research ship CEFAS Endeavour (UK)

Detailed information on ship capabilities available from University of Delaware's Ocean Information Center.

Last reported at 2015-Mar-27 16:30 UTC. Time now 2015-Mar-28 09:27 UTC.
Position N 50°43' W 005°31'.

Length 74 m; draft 6.4 m.

Type: Cargo ship. MMSI: 235005270.

Date/timePositionNaut miles runAvg speedWind from/ knotsBaromVisibWave heightAir tempDewpointWater temp
2015-Mar-27 16:30N 50°43' W 005°31'  
2015-Mar-22 18:17N 52°08' W 006°24'1111.2
2015-Mar-22 17:19N 52°03' W 006°39'811.2
2015-Mar-22 16:34N 52°01' W 006°52'7 6.6
2015-Mar-22 15:34N 52°05' W 007°01'9 9.5
2015-Mar-22 14:33N 52°07' W 007°16'2 2.1
2015-Mar-22 13:33N 52°05' W 007°16'4 3.5
2015-Mar-22 12:34N 52°03' W 007°21'1110.9
2015-Mar-22 11:33N 51°55' W 007°32'1 1.2
2015-Mar-22 10:34N 51°54' W 007°34'6 5.5
2015-Mar-22 09:34N 51°54' W 007°43'4 4.0
2015-Mar-22 08:33N 51°52' W 007°48'4 3.6
2015-Mar-22 07:33N 51°50' W 007°44'1110.6
2015-Mar-22 06:33N 51°41' W 007°34'2411.8
2015-Mar-22 04:30N 51°22' W 007°11'1111.9
2015-Mar-22 03:33N 51°12' W 007°01'74 4.6
2015-Mar-21 11:33N 50°36' W 005°19'1010.5
2015-Mar-21 10:33N 50°26' W 005°23'7 2.4
2015-Mar-21 07:27N 50°23' W 005°34'84 3.3
2015-Mar-20 06:11N 50°50' W 007°39'5 7.6
2015-Mar-20 05:31N 50°54' W 007°44'1212.4
2015-Mar-20 04:34N 51°00' W 008°00'10 7.4
2015-Mar-20 03:15N 51°04' W 008°15'7 9.4
2015-Mar-20 02:33N 51°02' W 008°25'1212.3
2015-Mar-20 01:32N 50°59' W 008°44'28 6.3
2015-Mar-19 21:05N 51°26' W 008°32'612.0
2015-Mar-19 20:34N 51°32' W 008°30'7 6.5
2015-Mar-19 19:33N 51°39' W 008°29'2 2.1
2015-Mar-19 18:34N 51°40' W 008°26'1 0.7
2015-Mar-19 17:33N 51°39' W 008°25'9 8.8
2015-Mar-19 16:34N 51°33' W 008°35'9 9.1
2015-Mar-19 15:34N 51°27' W 008°46'7 6.5
2015-Mar-19 14:34N 51°23' W 008°53'6 5.5
2015-Mar-19 13:34N 51°18' W 008°57'1212.1
2015-Mar-19 12:34N 51°06' W 009°01'  

Dump ship's entire track history